Terminal Aerodrome Forecast
Issued by NWS

Home | Current Version | Previous Version | Text Only | Print | Product List | Glossary Off
Versions: 1 2 3 4 5 6 7 8 9 10 11 12 13 14 15 16 17 18 19 20 21

000
FTUS43 KBIS 282300
TAFMOT
TAF
KMOT 282331Z 2900/2924 32017G25KT 6SM BR OVC008
     FM290600 33014KT P6SM OVC009
     FM292000 VRB05KT P6SM SCT009=

USA.gov is the U.S. government's official web portal to all federal, state and local government web resources and services.